sensor_id;sensor_type;location;lat;lon;timestamp;temperature;humidity
52127;DHT22;38120;53.176;6.614;2023-05-07T00:00:47;11.90;99.90
52127;DHT22;38120;53.176;6.614;2023-05-07T00:03:12;11.90;99.90
52127;DHT22;38120;53.176;6.614;2023-05-07T00:05:42;11.90;99.90
52127;DHT22;38120;53.176;6.614;2023-05-07T00:08:10;11.80;99.90
52127;DHT22;38120;53.176;6.614;2023-05-07T00:10:35;11.90;99.90
52127;DHT22;38120;53.176;6.614;2023-05-07T00:13:01;11.80;99.90
52127;DHT22;38120;53.176;6.614;2023-05-07T00:15:27;11.80;99.90
52127;DHT22;38120;53.176;6.614;2023-05-07T00:17:53;11.80;99.90
52127;DHT22;38120;53.176;6.614;2023-05-07T00:20:19;11.80;99.90
52127;DHT22;38120;53.176;6.614;2023-05-07T00:22:44;11.80;99.90
52127;DHT22;38120;53.176;6.614;2023-05-07T00:25:19;11.70;99.90
52127;DHT22;38120;53.176;6.614;2023-05-07T00:27:45;11.70;99.90
52127;DHT22;38120;53.176;6.614;2023-05-07T00:30:11;11.70;99.90
52127;DHT22;38120;53.176;6.614;2023-05-07T00:32:38;11.70;99.90
52127;DHT22;38120;53.176;6.614;2023-05-07T00:35:04;11.70;99.90
52127;DHT22;38120;53.176;6.614;2023-05-07T00:37:30;11.60;99.90
52127;DHT22;38120;53.176;6.614;2023-05-07T00:39:56;11.60;99.90
52127;DHT22;38120;53.176;6.614;2023-05-07T00:42:22;11.60;99.90
52127;DHT22;38120;53.176;6.614;2023-05-07T00:44:48;11.50;99.90
52127;DHT22;38120;53.176;6.614;2023-05-07T00:47:14;11.50;99.90
52127;DHT22;38120;53.176;6.614;2023-05-07T00:49:44;11.50;99.90
52127;DHT22;38120;53.176;6.614;2023-05-07T00:52:15;11.40;99.90
52127;DHT22;38120;53.176;6.614;2023-05-07T00:54:42;11.40;99.90
52127;DHT22;38120;53.176;6.614;2023-05-07T00:57:09;11.40;99.90
52127;DHT22;38120;53.176;6.614;2023-05-07T00:59:35;11.40;99.90
52127;DHT22;38120;53.176;6.614;2023-05-07T01:02:01;11.40;99.90
52127;DHT22;38120;53.176;6.614;2023-05-07T01:04:27;11.30;99.90
52127;DHT22;38120;53.176;6.614;2023-05-07T01:06:54;11.30;99.90
52127;DHT22;38120;53.176;6.614;2023-05-07T01:09:22;11.30;99.90
52127;DHT22;38120;53.176;6.614;2023-05-07T01:11:49;11.30;99.90
52127;DHT22;38120;53.176;6.614;2023-05-07T01:14:16;11.30;99.90
52127;DHT22;38120;53.176;6.614;2023-05-07T01:16:42;11.30;99.90
52127;DHT22;38120;53.176;6.614;2023-05-07T01:19:08;11.30;99.90
52127;DHT22;38120;53.176;6.614;2023-05-07T01:21:37;11.30;99.90
52127;DHT22;38120;53.176;6.614;2023-05-07T01:24:04;11.40;99.90
52127;DHT22;38120;53.176;6.614;2023-05-07T01:26:30;11.30;99.90
52127;DHT22;38120;53.176;6.614;2023-05-07T01:28:56;11.30;99.90
52127;DHT22;38120;53.176;6.614;2023-05-07T01:31:23;11.20;99.90
52127;DHT22;38120;53.176;6.614;2023-05-07T01:33:50;11.20;99.90
52127;DHT22;38120;53.176;6.614;2023-05-07T01:36:18;11.20;99.90
52127;DHT22;38120;53.176;6.614;2023-05-07T01:38:44;11.20;99.90
52127;DHT22;38120;53.176;6.614;2023-05-07T01:41:12;11.20;99.90
52127;DHT22;38120;53.176;6.614;2023-05-07T01:43:40;11.10;99.90
52127;DHT22;38120;53.176;6.614;2023-05-07T01:46:07;11.10;99.90
52127;DHT22;38120;53.176;6.614;2023-05-07T01:48:35;11.20;99.90
52127;DHT22;38120;53.176;6.614;2023-05-07T01:51:02;11.10;99.90
52127;DHT22;38120;53.176;6.614;2023-05-07T01:53:28;11.10;99.90
52127;DHT22;38120;53.176;6.614;2023-05-07T01:55:53;11.10;99.90
52127;DHT22;38120;53.176;6.614;2023-05-07T01:58:19;11.10;99.90
52127;DHT22;38120;53.176;6.614;2023-05-07T02:00:45;11.00;99.90
52127;DHT22;38120;53.176;6.614;2023-05-07T02:03:11;11.10;99.90
52127;DHT22;38120;53.176;6.614;2023-05-07T02:05:37;11.00;99.90
52127;DHT22;38120;53.176;6.614;2023-05-07T02:08:03;11.00;99.90
52127;DHT22;38120;53.176;6.614;2023-05-07T02:10:28;11.00;99.90
52127;DHT22;38120;53.176;6.614;2023-05-07T02:13:14;11.00;99.90
52127;DHT22;38120;53.176;6.614;2023-05-07T02:15:40;10.90;99.90
52127;DHT22;38120;53.176;6.614;2023-05-07T02:18:07;11.00;99.90
52127;DHT22;38120;53.176;6.614;2023-05-07T02:20:33;10.90;99.90
52127;DHT22;38120;53.176;6.614;2023-05-07T02:22:59;11.00;99.90
52127;DHT22;38120;53.176;6.614;2023-05-07T02:25:30;10.90;99.90
52127;DHT22;38120;53.176;6.614;2023-05-07T02:28:02;10.80;99.90
52127;DHT22;38120;53.176;6.614;2023-05-07T02:30:28;10.90;99.90
52127;DHT22;38120;53.176;6.614;2023-05-07T02:32:54;10.80;99.90
52127;DHT22;38120;53.176;6.614;2023-05-07T02:35:20;10.90;99.90
52127;DHT22;38120;53.176;6.614;2023-05-07T02:37:45;10.80;99.90
52127;DHT22;38120;53.176;6.614;2023-05-07T02:40:12;10.90;99.90
52127;DHT22;38120;53.176;6.614;2023-05-07T02:42:37;10.90;99.90
52127;DHT22;38120;53.176;6.614;2023-05-07T02:45:03;10.90;99.90
52127;DHT22;38120;53.176;6.614;2023-05-07T02:47:29;10.90;99.90
52127;DHT22;38120;53.176;6.614;2023-05-07T02:49:55;10.90;99.90
52127;DHT22;38120;53.176;6.614;2023-05-07T02:52:21;10.80;99.90
52127;DHT22;38120;53.176;6.614;2023-05-07T02:54:47;10.90;99.90
52127;DHT22;38120;53.176;6.614;2023-05-07T02:57:13;10.80;99.90
52127;DHT22;38120;53.176;6.614;2023-05-07T02:59:38;10.80;99.90
52127;DHT22;38120;53.176;6.614;2023-05-07T03:02:04;10.80;99.90
52127;DHT22;38120;53.176;6.614;2023-05-07T03:04:31;10.90;99.90
52127;DHT22;38120;53.176;6.614;2023-05-07T03:06:56;10.80;99.90
52127;DHT22;38120;53.176;6.614;2023-05-07T03:09:22;10.80;99.90
52127;DHT22;38120;53.176;6.614;2023-05-07T03:11:48;10.80;99.90
52127;DHT22;38120;53.176;6.614;2023-05-07T03:14:13;10.80;99.90
52127;DHT22;38120;53.176;6.614;2023-05-07T03:16:39;10.70;99.90
52127;DHT22;38120;53.176;6.614;2023-05-07T03:19:05;10.80;99.90
52127;DHT22;38120;53.176;6.614;2023-05-07T03:21:31;10.90;99.90
52127;DHT22;38120;53.176;6.614;2023-05-07T03:23:59;9.90;99.90
52127;DHT22;38120;53.176;6.614;2023-05-07T03:26:25;10.70;99.90
52127;DHT22;38120;53.176;6.614;2023-05-07T03:28:51;10.70;99.90
52127;DHT22;38120;53.176;6.614;2023-05-07T03:31:17;10.60;99.90
52127;DHT22;38120;53.176;6.614;2023-05-07T03:33:54;10.20;99.90
52127;DHT22;38120;53.176;6.614;2023-05-07T03:36:20;10.70;99.90
52127;DHT22;38120;53.176;6.614;2023-05-07T03:38:46;10.70;99.90
52127;DHT22;38120;53.176;6.614;2023-05-07T03:41:12;10.60;99.90
52127;DHT22;38120;53.176;6.614;2023-05-07T03:43:38;10.60;99.90
52127;DHT22;38120;53.176;6.614;2023-05-07T03:46:04;11.00;99.90
52127;DHT22;38120;53.176;6.614;2023-05-07T03:48:30;10.60;99.90
52127;DHT22;38120;53.176;6.614;2023-05-07T03:50:57;10.50;99.90
52127;DHT22;38120;53.176;6.614;2023-05-07T03:53:22;10.50;99.90
52127;DHT22;38120;53.176;6.614;2023-05-07T03:55:48;10.50;99.90
52127;DHT22;38120;53.176;6.614;2023-05-07T03:58:15;10.70;99.90
52127;DHT22;38120;53.176;6.614;2023-05-07T04:00:41;10.40;99.90
52127;DHT22;38120;53.176;6.614;2023-05-07T04:03:07;10.40;99.90
52127;DHT22;38120;53.176;6.614;2023-05-07T04:05:33;10.40;99.90
52127;DHT22;38120;53.176;6.614;2023-05-07T04:07:59;10.40;99.90
52127;DHT22;38120;53.176;6.614;2023-05-07T04:10:25;10.40;99.90
52127;DHT22;38120;53.176;6.614;2023-05-07T04:12:51;10.50;99.90
52127;DHT22;38120;53.176;6.614;2023-05-07T04:15:17;10.40;99.90
52127;DHT22;38120;53.176;6.614;2023-05-07T04:17:42;10.40;99.90
52127;DHT22;38120;53.176;6.614;2023-05-07T04:20:15;10.40;99.90
52127;DHT22;38120;53.176;6.614;2023-05-07T04:22:41;10.40;99.90
52127;DHT22;38120;53.176;6.614;2023-05-07T04:25:08;10.40;99.90
52127;DHT22;38120;53.176;6.614;2023-05-07T04:27:35;10.40;99.90
52127;DHT22;38120;53.176;6.614;2023-05-07T04:30:01;10.40;99.90
52127;DHT22;38120;53.176;6.614;2023-05-07T04:32:28;10.40;99.90
52127;DHT22;38120;53.176;6.614;2023-05-07T04:34:55;10.50;99.90
52127;DHT22;38120;53.176;6.614;2023-05-07T04:37:21;11.20;99.90
52127;DHT22;38120;53.176;6.614;2023-05-07T04:39:47;10.80;99.90
52127;DHT22;38120;53.176;6.614;2023-05-07T04:42:16;10.40;99.90
52127;DHT22;38120;53.176;6.614;2023-05-07T04:44:43;10.30;99.90
52127;DHT22;38120;53.176;6.614;2023-05-07T04:47:09;10.40;99.90
52127;DHT22;38120;53.176;6.614;2023-05-07T04:49:36;10.40;99.90
52127;DHT22;38120;53.176;6.614;2023-05-07T04:52:04;10.40;99.90
52127;DHT22;38120;53.176;6.614;2023-05-07T04:54:35;11.80;99.90
52127;DHT22;38120;53.176;6.614;2023-05-07T04:57:03;10.30;99.90
52127;DHT22;38120;53.176;6.614;2023-05-07T04:59:28;10.40;99.90
52127;DHT22;38120;53.176;6.614;2023-05-07T05:01:54;10.70;99.90
52127;DHT22;38120;53.176;6.614;2023-05-07T05:04:20;10.30;99.90
52127;DHT22;38120;53.176;6.614;2023-05-07T05:06:45;10.30;99.90
52127;DHT22;38120;53.176;6.614;2023-05-07T05:09:11;10.30;99.90
52127;DHT22;38120;53.176;6.614;2023-05-07T05:11:37;10.30;99.90
52127;DHT22;38120;53.176;6.614;2023-05-07T05:14:02;10.40;99.90
52127;DHT22;38120;53.176;6.614;2023-05-07T05:16:28;10.60;99.90
52127;DHT22;38120;53.176;6.614;2023-05-07T05:18:54;10.40;99.90
52127;DHT22;38120;53.176;6.614;2023-05-07T05:21:20;10.40;99.90
52127;DHT22;38120;53.176;6.614;2023-05-07T05:23:46;10.10;99.90
52127;DHT22;38120;53.176;6.614;2023-05-07T05:26:12;10.40;99.90
52127;DHT22;38120;53.176;6.614;2023-05-07T05:28:38;10.40;99.90
52127;DHT22;38120;53.176;6.614;2023-05-07T05:31:06;10.40;99.90
52127;DHT22;38120;53.176;6.614;2023-05-07T05:33:32;10.40;99.90
52127;DHT22;38120;53.176;6.614;2023-05-07T05:35:57;10.40;99.90
52127;DHT22;38120;53.176;6.614;2023-05-07T05:38:23;10.40;99.90
52127;DHT22;38120;53.176;6.614;2023-05-07T05:40:48;10.40;99.90
52127;DHT22;38120;53.176;6.614;2023-05-07T05:43:14;10.40;99.90
52127;DHT22;38120;53.176;6.614;2023-05-07T05:45:40;10.40;99.90
52127;DHT22;38120;53.176;6.614;2023-05-07T05:48:06;10.40;99.90
52127;DHT22;38120;53.176;6.614;2023-05-07T05:50:34;10.30;99.90
52127;DHT22;38120;53.176;6.614;2023-05-07T05:53:01;10.30;99.90
52127;DHT22;38120;53.176;6.614;2023-05-07T05:55:27;10.40;99.90
52127;DHT22;38120;53.176;6.614;2023-05-07T05:57:52;10.40;99.90
52127;DHT22;38120;53.176;6.614;2023-05-07T06:00:18;10.40;99.90
52127;DHT22;38120;53.176;6.614;2023-05-07T06:03:02;10.40;99.90
52127;DHT22;38120;53.176;6.614;2023-05-07T06:05:28;10.50;99.90
52127;DHT22;38120;53.176;6.614;2023-05-07T06:07:53;10.40;99.90
52127;DHT22;38120;53.176;6.614;2023-05-07T06:10:19;10.40;99.90
52127;DHT22;38120;53.176;6.614;2023-05-07T06:12:48;10.30;99.90
52127;DHT22;38120;53.176;6.614;2023-05-07T06:15:13;10.40;99.90
52127;DHT22;38120;53.176;6.614;2023-05-07T06:17:39;10.40;99.90
52127;DHT22;38120;53.176;6.614;2023-05-07T06:20:05;10.60;99.90
52127;DHT22;38120;53.176;6.614;2023-05-07T06:22:31;10.10;99.90
52127;DHT22;38120;53.176;6.614;2023-05-07T06:24:57;10.40;99.90
52127;DHT22;38120;53.176;6.614;2023-05-07T06:27:23;10.40;99.90
52127;DHT22;38120;53.176;6.614;2023-05-07T06:29:48;10.50;99.90
52127;DHT22;38120;53.176;6.614;2023-05-07T06:32:14;10.50;99.90
52127;DHT22;38120;53.176;6.614;2023-05-07T06:34:40;10.40;99.90
52127;DHT22;38120;53.176;6.614;2023-05-07T06:37:06;10.50;99.90
52127;DHT22;38120;53.176;6.614;2023-05-07T06:39:38;10.50;99.90
52127;DHT22;38120;53.176;6.614;2023-05-07T06:42:04;10.50;99.90
52127;DHT22;38120;53.176;6.614;2023-05-07T06:44:32;10.50;99.90
52127;DHT22;38120;53.176;6.614;2023-05-07T06:47:00;10.50;99.90
52127;DHT22;38120;53.176;6.614;2023-05-07T06:49:32;10.50;99.90
52127;DHT22;38120;53.176;6.614;2023-05-07T06:51:58;10.60;99.90
52127;DHT22;38120;53.176;6.614;2023-05-07T06:54:24;10.60;99.90
52127;DHT22;38120;53.176;6.614;2023-05-07T06:56:50;10.60;99.90
52127;DHT22;38120;53.176;6.614;2023-05-07T06:59:15;10.60;99.90
52127;DHT22;38120;53.176;6.614;2023-05-07T07:01:47;10.70;99.90
52127;DHT22;38120;53.176;6.614;2023-05-07T07:04:13;10.70;99.90
52127;DHT22;38120;53.176;6.614;2023-05-07T07:06:38;10.80;99.90
52127;DHT22;38120;53.176;6.614;2023-05-07T07:09:04;10.80;99.90
52127;DHT22;38120;53.176;6.614;2023-05-07T07:11:36;10.70;99.90
52127;DHT22;38120;53.176;6.614;2023-05-07T07:14:01;10.80;99.90
52127;DHT22;38120;53.176;6.614;2023-05-07T07:16:27;10.70;99.90
52127;DHT22;38120;53.176;6.614;2023-05-07T07:18:53;10.70;99.90
52127;DHT22;38120;53.176;6.614;2023-05-07T07:21:19;10.80;99.90
52127;DHT22;38120;53.176;6.614;2023-05-07T07:23:45;10.90;99.90
52127;DHT22;38120;53.176;6.614;2023-05-07T07:26:10;10.80;99.90
52127;DHT22;38120;53.176;6.614;2023-05-07T07:28:45;10.80;99.90
52127;DHT22;38120;53.176;6.614;2023-05-07T07:31:11;10.90;99.90
52127;DHT22;38120;53.176;6.614;2023-05-07T07:33:37;10.90;99.90
52127;DHT22;38120;53.176;6.614;2023-05-07T07:36:02;11.10;99.90
52127;DHT22;38120;53.176;6.614;2023-05-07T07:38:28;10.90;99.90
52127;DHT22;38120;53.176;6.614;2023-05-07T07:40:54;11.00;99.90
52127;DHT22;38120;53.176;6.614;2023-05-07T07:43:20;11.00;99.90
52127;DHT22;38120;53.176;6.614;2023-05-07T07:45:51;11.00;99.90
52127;DHT22;38120;53.176;6.614;2023-05-07T07:48:17;11.10;99.90
52127;DHT22;38120;53.176;6.614;2023-05-07T07:50:42;11.30;99.90
52127;DHT22;38120;53.176;6.614;2023-05-07T07:53:08;11.40;99.90
52127;DHT22;38120;53.176;6.614;2023-05-07T07:55:38;11.40;99.90
52127;DHT22;38120;53.176;6.614;2023-05-07T07:58:04;11.50;99.90
52127;DHT22;38120;53.176;6.614;2023-05-07T08:00:30;11.50;99.90
52127;DHT22;38120;53.176;6.614;2023-05-07T08:02:58;11.60;99.90
52127;DHT22;38120;53.176;6.614;2023-05-07T08:05:24;11.80;99.90
52127;DHT22;38120;53.176;6.614;2023-05-07T08:07:50;11.80;99.90
52127;DHT22;38120;53.176;6.614;2023-05-07T08:10:19;11.90;99.90
52127;DHT22;38120;53.176;6.614;2023-05-07T08:12:51;11.90;99.90
52127;DHT22;38120;53.176;6.614;2023-05-07T08:15:17;12.00;99.90
52127;DHT22;38120;53.176;6.614;2023-05-07T08:17:43;11.90;99.90
52127;DHT22;38120;53.176;6.614;2023-05-07T08:20:09;11.90;99.90
52127;DHT22;38120;53.176;6.614;2023-05-07T08:22:35;11.90;99.90
52127;DHT22;38120;53.176;6.614;2023-05-07T08:25:04;12.00;99.90
52127;DHT22;38120;53.176;6.614;2023-05-07T08:27:35;12.10;99.90
52127;DHT22;38120;53.176;6.614;2023-05-07T08:30:02;12.10;99.90
52127;DHT22;38120;53.176;6.614;2023-05-07T08:32:37;12.00;99.90
52127;DHT22;38120;53.176;6.614;2023-05-07T08:35:03;12.10;99.90
52127;DHT22;38120;53.176;6.614;2023-05-07T08:37:29;12.20;99.90
52127;DHT22;38120;53.176;6.614;2023-05-07T08:39:54;12.30;99.90
52127;DHT22;38120;53.176;6.614;2023-05-07T08:42:23;12.30;99.90
52127;DHT22;38120;53.176;6.614;2023-05-07T08:44:51;12.30;99.90
52127;DHT22;38120;53.176;6.614;2023-05-07T08:47:22;12.50;99.90
52127;DHT22;38120;53.176;6.614;2023-05-07T08:49:48;12.40;99.90
52127;DHT22;38120;53.176;6.614;2023-05-07T08:52:15;12.40;99.90
52127;DHT22;38120;53.176;6.614;2023-05-07T08:54:41;12.50;99.90
52127;DHT22;38120;53.176;6.614;2023-05-07T08:57:06;12.60;99.90
52127;DHT22;38120;53.176;6.614;2023-05-07T08:59:32;12.70;99.90
52127;DHT22;38120;53.176;6.614;2023-05-07T09:01:58;12.80;99.90
52127;DHT22;38120;53.176;6.614;2023-05-07T09:04:23;12.80;99.90
52127;DHT22;38120;53.176;6.614;2023-05-07T09:06:49;12.70;99.90
52127;DHT22;38120;53.176;6.614;2023-05-07T09:09:17;12.70;99.90
52127;DHT22;38120;53.176;6.614;2023-05-07T09:11:44;12.80;99.90
52127;DHT22;38120;53.176;6.614;2023-05-07T09:14:21;12.90;99.90
52127;DHT22;38120;53.176;6.614;2023-05-07T09:16:47;13.10;99.90
52127;DHT22;38120;53.176;6.614;2023-05-07T09:19:26;13.10;99.90
52127;DHT22;38120;53.176;6.614;2023-05-07T09:22:03;13.20;99.90
52127;DHT22;38120;53.176;6.614;2023-05-07T09:24:30;13.30;99.90
52127;DHT22;38120;53.176;6.614;2023-05-07T09:27:00;13.20;99.90
52127;DHT22;38120;53.176;6.614;2023-05-07T09:29:26;13.20;99.90
52127;DHT22;38120;53.176;6.614;2023-05-07T09:31:54;13.30;99.90
52127;DHT22;38120;53.176;6.614;2023-05-07T09:34:20;13.30;99.90
52127;DHT22;38120;53.176;6.614;2023-05-07T09:36:53;13.50;99.90
52127;DHT22;38120;53.176;6.614;2023-05-07T09:39:19;13.60;99.90
52127;DHT22;38120;53.176;6.614;2023-05-07T09:41:46;13.70;99.90
52127;DHT22;38120;53.176;6.614;2023-05-07T09:44:23;13.70;99.90
52127;DHT22;38120;53.176;6.614;2023-05-07T09:46:53;13.80;99.90
52127;DHT22;38120;53.176;6.614;2023-05-07T09:49:23;13.90;99.90
52127;DHT22;38120;53.176;6.614;2023-05-07T09:51:52;14.00;99.90
52127;DHT22;38120;53.176;6.614;2023-05-07T09:54:18;14.00;99.90
52127;DHT22;38120;53.176;6.614;2023-05-07T09:56:48;14.10;99.90
52127;DHT22;38120;53.176;6.614;2023-05-07T09:59:24;14.20;99.90
52127;DHT22;38120;53.176;6.614;2023-05-07T10:01:51;14.20;99.90
52127;DHT22;38120;53.176;6.614;2023-05-07T10:04:18;14.30;99.90
52127;DHT22;38120;53.176;6.614;2023-05-07T10:06:46;14.30;99.90
52127;DHT22;38120;53.176;6.614;2023-05-07T10:09:12;14.30;99.90
52127;DHT22;38120;53.176;6.614;2023-05-07T10:11:39;14.30;99.90
52127;DHT22;38120;53.176;6.614;2023-05-07T10:14:06;14.20;99.90
52127;DHT22;38120;53.176;6.614;2023-05-07T10:16:33;14.00;99.90
52127;DHT22;38120;53.176;6.614;2023-05-07T10:19:05;14.10;99.90
52127;DHT22;38120;53.176;6.614;2023-05-07T10:21:39;14.10;99.90
52127;DHT22;38120;53.176;6.614;2023-05-07T10:24:13;14.20;99.90
52127;DHT22;38120;53.176;6.614;2023-05-07T10:26:44;14.40;99.90
52127;DHT22;38120;53.176;6.614;2023-05-07T10:29:18;14.20;99.90
52127;DHT22;38120;53.176;6.614;2023-05-07T10:34:26;14.40;99.90
52127;DHT22;38120;53.176;6.614;2023-05-07T10:36:54;14.40;99.90
52127;DHT22;38120;53.176;6.614;2023-05-07T10:39:21;14.50;99.90
52127;DHT22;38120;53.176;6.614;2023-05-07T10:41:47;14.60;99.90
52127;DHT22;38120;53.176;6.614;2023-05-07T10:44:28;14.80;99.90
52127;DHT22;38120;53.176;6.614;2023-05-07T10:47:04;14.70;99.90
52127;DHT22;38120;53.176;6.614;2023-05-07T10:49:30;14.80;99.90
52127;DHT22;38120;53.176;6.614;2023-05-07T10:52:25;14.80;99.90
52127;DHT22;38120;53.176;6.614;2023-05-07T10:57:43;15.10;99.90
52127;DHT22;38120;53.176;6.614;2023-05-07T11:05:25;15.50;99.90
52127;DHT22;38120;53.176;6.614;2023-05-07T11:08:01;15.40;99.90
52127;DHT22;38120;53.176;6.614;2023-05-07T11:10:53;15.50;99.90
52127;DHT22;38120;53.176;6.614;2023-05-07T11:13:48;15.70;99.90
52127;DHT22;38120;53.176;6.614;2023-05-07T11:16:24;15.80;99.90
52127;DHT22;38120;53.176;6.614;2023-05-07T11:18:54;15.50;99.90
52127;DHT22;38120;53.176;6.614;2023-05-07T11:21:41;15.60;99.90
52127;DHT22;38120;53.176;6.614;2023-05-07T11:24:10;15.80;99.90
52127;DHT22;38120;53.176;6.614;2023-05-07T11:26:49;16.10;99.90
52127;DHT22;38120;53.176;6.614;2023-05-07T11:29:18;16.20;99.90
52127;DHT22;38120;53.176;6.614;2023-05-07T11:31:49;16.30;99.90
52127;DHT22;38120;53.176;6.614;2023-05-07T11:34:21;16.50;99.90
52127;DHT22;38120;53.176;6.614;2023-05-07T11:36:47;16.50;99.90
52127;DHT22;38120;53.176;6.614;2023-05-07T11:39:46;16.60;99.90
52127;DHT22;38120;53.176;6.614;2023-05-07T11:42:32;16.80;99.90
52127;DHT22;38120;53.176;6.614;2023-05-07T11:44:58;16.50;99.90
52127;DHT22;38120;53.176;6.614;2023-05-07T11:47:24;16.60;99.90
52127;DHT22;38120;53.176;6.614;2023-05-07T11:49:53;16.60;99.90
52127;DHT22;38120;53.176;6.614;2023-05-07T11:52:21;16.90;99.90
52127;DHT22;38120;53.176;6.614;2023-05-07T11:54:57;16.70;99.90
52127;DHT22;38120;53.176;6.614;2023-05-07T11:57:24;17.10;99.90
52127;DHT22;38120;53.176;6.614;2023-05-07T12:02:19;17.10;99.90
52127;DHT22;38120;53.176;6.614;2023-05-07T12:04:45;17.00;99.90
52127;DHT22;38120;53.176;6.614;2023-05-07T12:07:14;17.30;99.90
52127;DHT22;38120;53.176;6.614;2023-05-07T12:09:45;17.60;99.90
52127;DHT22;38120;53.176;6.614;2023-05-07T12:12:11;17.10;99.90
52127;DHT22;38120;53.176;6.614;2023-05-07T12:14:41;17.00;99.90
52127;DHT22;38120;53.176;6.614;2023-05-07T12:17:13;17.30;99.90
52127;DHT22;38120;53.176;6.614;2023-05-07T12:19:40;17.20;99.90
52127;DHT22;38120;53.176;6.614;2023-05-07T12:22:10;17.40;99.90
52127;DHT22;38120;53.176;6.614;2023-05-07T12:24:50;17.30;99.90
52127;DHT22;38120;53.176;6.614;2023-05-07T12:27:21;17.10;99.90
52127;DHT22;38120;53.176;6.614;2023-05-07T12:29:47;17.40;99.90
52127;DHT22;38120;53.176;6.614;2023-05-07T12:32:14;17.40;99.90
52127;DHT22;38120;53.176;6.614;2023-05-07T12:34:40;17.90;99.90
52127;DHT22;38120;53.176;6.614;2023-05-07T12:37:06;17.80;99.90
52127;DHT22;38120;53.176;6.614;2023-05-07T12:39:32;18.00;99.90
52127;DHT22;38120;53.176;6.614;2023-05-07T12:41:59;17.90;99.90
52127;DHT22;38120;53.176;6.614;2023-05-07T12:44:34;17.60;99.90
52127;DHT22;38120;53.176;6.614;2023-05-07T12:47:04;17.70;99.90
52127;DHT22;38120;53.176;6.614;2023-05-07T12:49:29;17.70;99.90
52127;DHT22;38120;53.176;6.614;2023-05-07T12:51:55;17.70;99.90
52127;DHT22;38120;53.176;6.614;2023-05-07T12:54:35;17.90;99.90
52127;DHT22;38120;53.176;6.614;2023-05-07T12:57:02;18.00;99.90
52127;DHT22;38120;53.176;6.614;2023-05-07T12:59:37;18.10;99.90
52127;DHT22;38120;53.176;6.614;2023-05-07T13:02:04;18.10;99.90
52127;DHT22;38120;53.176;6.614;2023-05-07T13:04:30;18.10;99.90
52127;DHT22;38120;53.176;6.614;2023-05-07T13:06:56;18.30;99.90
52127;DHT22;38120;53.176;6.614;2023-05-07T13:09:22;18.60;99.90
52127;DHT22;38120;53.176;6.614;2023-05-07T13:11:47;18.60;99.90
52127;DHT22;38120;53.176;6.614;2023-05-07T13:14:13;18.60;99.90
52127;DHT22;38120;53.176;6.614;2023-05-07T13:16:39;18.10;99.90
52127;DHT22;38120;53.176;6.614;2023-05-07T13:19:04;18.50;99.90
52127;DHT22;38120;53.176;6.614;2023-05-07T13:21:30;18.80;99.90
52127;DHT22;38120;53.176;6.614;2023-05-07T13:23:59;18.70;99.90
52127;DHT22;38120;53.176;6.614;2023-05-07T13:26:25;18.30;99.90
52127;DHT22;38120;53.176;6.614;2023-05-07T13:28:54;18.50;99.90
52127;DHT22;38120;53.176;6.614;2023-05-07T13:31:20;18.70;99.90
52127;DHT22;38120;53.176;6.614;2023-05-07T13:33:46;18.60;99.90
52127;DHT22;38120;53.176;6.614;2023-05-07T13:36:12;18.50;99.90
52127;DHT22;38120;53.176;6.614;2023-05-07T13:38:39;18.80;99.90
52127;DHT22;38120;53.176;6.614;2023-05-07T13:41:05;18.80;99.90
52127;DHT22;38120;53.176;6.614;2023-05-07T13:43:31;19.10;99.90
52127;DHT22;38120;53.176;6.614;2023-05-07T13:45:59;18.80;99.90
52127;DHT22;38120;53.176;6.614;2023-05-07T13:48:25;19.00;99.90
52127;DHT22;38120;53.176;6.614;2023-05-07T13:50:51;19.10;99.90
52127;DHT22;38120;53.176;6.614;2023-05-07T13:53:17;19.40;99.90
52127;DHT22;38120;53.176;6.614;2023-05-07T13:55:44;19.50;99.90
52127;DHT22;38120;53.176;6.614;2023-05-07T13:58:10;19.40;99.90
52127;DHT22;38120;53.176;6.614;2023-05-07T14:00:36;19.60;99.90
52127;DHT22;38120;53.176;6.614;2023-05-07T14:03:02;19.50;99.90
52127;DHT22;38120;53.176;6.614;2023-05-07T14:05:28;19.60;99.90
52127;DHT22;38120;53.176;6.614;2023-05-07T14:07:55;19.80;99.90
52127;DHT22;38120;53.176;6.614;2023-05-07T14:10:22;19.80;99.90
52127;DHT22;38120;53.176;6.614;2023-05-07T14:12:48;19.50;99.90
52127;DHT22;38120;53.176;6.614;2023-05-07T14:15:14;19.40;99.90
52127;DHT22;38120;53.176;6.614;2023-05-07T14:17:40;19.50;99.90
52127;DHT22;38120;53.176;6.614;2023-05-07T14:20:06;19.40;99.90
52127;DHT22;38120;53.176;6.614;2023-05-07T14:22:32;19.30;99.90
52127;DHT22;38120;53.176;6.614;2023-05-07T14:24:58;19.30;99.90
52127;DHT22;38120;53.176;6.614;2023-05-07T14:27:23;19.40;99.90
52127;DHT22;38120;53.176;6.614;2023-05-07T14:29:49;19.30;99.90
52127;DHT22;38120;53.176;6.614;2023-05-07T14:32:19;19.40;99.90
52127;DHT22;38120;53.176;6.614;2023-05-07T14:34:47;19.30;99.90
52127;DHT22;38120;53.176;6.614;2023-05-07T14:37:13;19.30;99.90
52127;DHT22;38120;53.176;6.614;2023-05-07T14:39:39;19.70;99.90
52127;DHT22;38120;53.176;6.614;2023-05-07T14:42:04;19.70;99.90
52127;DHT22;38120;53.176;6.614;2023-05-07T14:44:30;20.10;99.90
52127;DHT22;38120;53.176;6.614;2023-05-07T14:46:56;20.00;99.90
52127;DHT22;38120;53.176;6.614;2023-05-07T14:49:25;20.00;99.90
52127;DHT22;38120;53.176;6.614;2023-05-07T14:51:51;20.00;99.90
52127;DHT22;38120;53.176;6.614;2023-05-07T14:54:19;19.70;99.90
52127;DHT22;38120;53.176;6.614;2023-05-07T14:56:45;19.20;99.90
52127;DHT22;38120;53.176;6.614;2023-05-07T14:59:12;19.20;99.90
52127;DHT22;38120;53.176;6.614;2023-05-07T15:01:38;19.00;99.90
52127;DHT22;38120;53.176;6.614;2023-05-07T15:04:05;19.10;99.90
52127;DHT22;38120;53.176;6.614;2023-05-07T15:06:32;19.10;99.90
52127;DHT22;38120;53.176;6.614;2023-05-07T15:08:58;19.10;99.90
52127;DHT22;38120;53.176;6.614;2023-05-07T15:11:24;19.20;99.90
52127;DHT22;38120;53.176;6.614;2023-05-07T15:13:50;19.20;99.90
52127;DHT22;38120;53.176;6.614;2023-05-07T15:16:16;19.20;99.90
52127;DHT22;38120;53.176;6.614;2023-05-07T15:18:42;19.30;99.90
52127;DHT22;38120;53.176;6.614;2023-05-07T15:21:08;19.20;99.90
52127;DHT22;38120;53.176;6.614;2023-05-07T15:23:34;19.20;99.90
52127;DHT22;38120;53.176;6.614;2023-05-07T15:25:59;19.20;99.90
52127;DHT22;38120;53.176;6.614;2023-05-07T15:28:26;19.20;99.90
52127;DHT22;38120;53.176;6.614;2023-05-07T15:30:56;19.00;99.90
52127;DHT22;38120;53.176;6.614;2023-05-07T15:33:22;19.10;99.90
52127;DHT22;38120;53.176;6.614;2023-05-07T15:35:48;19.10;99.90
52127;DHT22;38120;53.176;6.614;2023-05-07T15:38:14;18.90;99.90
52127;DHT22;38120;53.176;6.614;2023-05-07T15:40:41;19.00;99.90
52127;DHT22;38120;53.176;6.614;2023-05-07T15:43:08;19.00;99.90
52127;DHT22;38120;53.176;6.614;2023-05-07T15:45:39;19.10;99.90